WARM SPRINGS (USACE) (WRS)

Elevation: 440' · RUSSIAN R basin · Operator: US Army Corps of Engineers

Provisional data, subject to change.
Query executed Sunday at 12:29:41   clock

Select a sensor type for a plot of data.
Note: Reservoir Flows are daily averages.

Earlier

Date RES ELE    STORAGE    RES CHG    TOC STO    ABV TOC    OUTFLOW    INFLOW    PPT INC    TEMP MN    TEMP MX    EVP PAN   
 FEET   AF   AF   AF   AF   CFS   CFS   INCHES   DEG F   DEG F   INCHES  
04/04/2015 439.34 215414 -121 245000 -29586 81 28 0.00 6 22 0.13
04/05/2015 439.31 215341 -73 245000 -29659 80 50 0.04 4 17 0.09
04/06/2015 439.27 215245 -96 245000 -29755 80 37 0.22 1 16 0.08
04/07/2015 439.43 215632 387 245000 -29368 81 281 1.51 6 14 0.07
04/08/2015 439.38 215511 -121 245000 -29489 80 27 0.02 5 21 0.12
04/09/2015 439.35 215438 -73 245000 -29562 79 51 0.02 4 22 0.12
04/10/2015 439.32 215366 -72 245000 -29634 78 51 0.01 4 24 0.13
04/11/2015 439.27 215245 -121 245000 -29755 79 27 0.01 8 25 0.14
04/12/2015 439.20 215075 -170 245000 -29925 78 3 0.02 10 28 0.15
04/13/2015 439.15 214955 -- 245000 -- 78 27 0.00 4 24 0.14
04/14/2015 439.07 214761 -- 245000 -- 78 -10 0.00 6 22 0.15
04/15/2015 439.03 214665 -96 245000 -30335 78 41 0.00 8 28 0.16
04/16/2015 438.97 214520 -145 245000 -30480 78 18 0.02 10 32 0.19
04/17/2015 438.91 214375 -145 245000 -30625 79 17 0.00 6 29 0.17
04/18/2015 438.86 214255 -120 245000 -30745 79 29 0.00 7 28 0.17
04/19/2015 438.81 214134 -121 245000 -30866 79 29 0.00 8 25 0.16
04/20/2015 438.76 214014 -120 245000 -30986 79 28 0.00 11 23 0.15
04/21/2015 438.73 213942 -72 245000 -31058 79 50 0.00 8 19 0.11
04/22/2015 438.66 213773 -169 245000 -31227 79 5 0.00 6 27 0.18
04/23/2015 438.60 213629 -144 245000 -31371 78 17 0.00 6 25 0.17
04/24/2015 438.56 213533 -96 245000 -31467 78 41 0.39 10 24 0.17
04/25/2015 438.52 213436 -97 245000 -31564 78 42 0.08 10 23 0.19
04/26/2015 438.46 213292 -144 245000 -31708 78 18 0.00 6 28 0.19
04/27/2015 438.41 213172 -120 245000 -31828 78 33 0.07 11 35 0.22
04/28/2015 438.34 213004 -168 245000 -31996 78 7 0.00 9 31 0.21
04/29/2015 438.29 212884 -- 245000 -- 78 21 0.00 12 16 0.05
04/30/2015 438.23 212740 -144 245000 -32260 78 23 0.01 15 35 0.25
05/01/2015 438.15 212548 -192 245000 -32452 83 2 0.00 11 33 0.22
05/02/2015 438.08 212380 -- 245000 -32620 88 16 0.00 10 27 0.20
05/03/2015 -- -- -- -- -- -- -- -- -- -- --

Later | Latest

Warning! This data is preliminary and subject to revision.

Show WRS Map | Plot WRS Data | 1 Month WRS Data | Real-Time WRS Data | WRS Info